Time;durP1;ratioP1;P1;durP2;ratioP2;P2;SDS_P1;SDS_P2;PMS_P1;PMS_P2;Temp;Humidity;BMP_temperature;BMP_pressure;BME280_temperature;BME280_humidity;BME280_pressure;Samples;Min_cycle;Max_cycle;Signal;HPM_P1;HPM_P2
2023/03/01 00:01:38;;;;;;;5.83;3.33;;;;;;;5.09;86.68;101925.97;4931061;29;20637;-78
2023/03/01 00:04:04;;;;;;;6.47;3.60;;;;;;;5.21;86.95;101919.88;4927694;29;20036;-77
2023/03/01 00:06:29;;;;;;;5.45;3.30;;;;;;;5.16;86.65;101916.63;4916065;29;20444;-79
2023/03/01 00:08:55;;;;;;;5.87;3.27;;;;;;;5.15;86.59;101920.28;4927877;29;20108;-79
2023/03/01 00:11:25;;;;;;;5.40;3.43;;;;;;;5.23;86.21;101917.97;4931624;29;20307;-77
2023/03/01 00:13:55;;;;;;;6.03;3.10;;;;;;;5.24;85.83;101913.50;4894631;29;20036;-78
2023/03/01 00:16:33;;;;;;;5.25;3.20;;;;;;;5.21;86.15;101925.19;4915814;29;20033;-77
2023/03/01 00:18:58;;;;;;;6.15;3.53;;;;;;;5.11;86.40;101915.22;4908377;29;20412;-79
2023/03/01 00:21:24;;;;;;;5.67;3.30;;;;;;;5.26;85.71;101931.09;4899552;29;20119;-77
2023/03/01 00:23:50;;;;;;;5.88;3.30;;;;;;;5.20;86.16;101920.84;4925712;29;20295;-78
2023/03/01 00:26:16;;;;;;;6.85;3.83;;;;;;;5.15;86.42;101914.94;4912671;29;20036;-77
2023/03/01 00:28:42;;;;;;;6.93;3.88;;;;;;;5.29;86.08;101928.28;4896779;29;20054;-78
2023/03/01 00:31:10;;;;;;;6.78;3.90;;;;;;;5.09;85.98;101883.31;4904747;29;20149;-77
2023/03/01 00:33:36;;;;;;;8.32;4.32;;;;;;;5.16;85.33;101903.31;4913244;29;20118;-77
2023/03/01 00:36:04;;;;;;;7.27;4.33;;;;;;;5.18;85.71;101927.22;4899162;29;20122;-78
2023/03/01 00:38:30;;;;;;;7.57;4.82;;;;;;;5.02;86.12;101892.66;4911313;29;20039;-78
2023/03/01 00:41:03;;;;;;;8.43;4.50;;;;;;;4.94;86.17;101860.28;4914555;29;20043;-78
2023/03/01 00:43:29;;;;;;;6.43;4.05;;;;;;;5.13;86.77;101879.53;4895389;29;20066;-78
2023/03/01 00:45:55;;;;;;;6.77;3.93;;;;;;;5.07;85.90;101891.41;4932879;29;20804;-80
2023/03/01 00:48:21;;;;;;;6.63;4.00;;;;;;;5.08;85.76;101884.28;4912193;29;20115;-79
2023/03/01 00:50:46;;;;;;;8.43;4.00;;;;;;;5.04;85.81;101890.75;4915765;29;20043;-77
2023/03/01 00:53:13;;;;;;;7.27;4.00;;;;;;;5.10;84.57;101882.34;4907701;29;20040;-77
2023/03/01 00:55:39;;;;;;;6.30;3.00;;;;;;;4.98;83.57;101885.78;4931805;29;20049;-77
2023/03/01 00:58:05;;;;;;;5.13;3.03;;;;;;;4.86;83.56;101871.41;4910598;29;20429;-77
2023/03/01 01:00:31;;;;;;;6.10;3.15;;;;;;;4.80;83.59;101880.66;4926625;29;20028;-78
2023/03/01 01:02:56;;;;;;;7.70;3.27;;;;;;;4.78;84.11;101871.88;4894525;29;20047;-79
2023/03/01 01:05:23;;;;;;;5.17;3.17;;;;;;;4.80;84.34;101872.66;4931737;29;20231;-77
2023/03/01 01:07:49;;;;;;;4.28;2.78;;;;;;;4.65;83.86;101876.25;4909273;29;20047;-78
2023/03/01 01:10:16;;;;;;;5.10;2.80;;;;;;;4.68;84.07;101881.38;4933454;29;20039;-78
2023/03/01 01:12:44;;;;;;;7.55;2.92;;;;;;;4.59;84.19;101858.84;4915342;29;20066;-77
2023/03/01 01:15:12;;;;;;;7.75;3.70;;;;;;;4.69;84.50;101859.13;4912258;29;20048;-78
2023/03/01 01:17:38;;;;;;;6.13;3.60;;;;;;;4.61;83.82;101850.72;4929357;29;20507;-77
2023/03/01 01:20:04;;;;;;;7.50;3.97;;;;;;;4.68;83.92;101856.53;4913858;29;20043;-77
2023/03/01 01:22:29;;;;;;;7.13;3.85;;;;;;;4.69;84.22;101866.28;4912357;29;20477;-77
2023/03/01 01:24:55;;;;;;;7.07;3.80;;;;;;;4.53;83.93;101834.38;4915823;29;20452;-77
2023/03/01 01:27:22;;;;;;;7.68;4.25;;;;;;;4.67;83.33;101863.69;4896368;29;20362;-77
2023/03/01 01:29:47;;;;;;;6.38;3.75;;;;;;;4.66;83.23;101856.66;4930167;29;20044;-77
2023/03/01 01:32:14;;;;;;;7.93;4.50;;;;;;;4.67;83.15;101855.69;4897584;29;20125;-77
2023/03/01 01:34:39;;;;;;;8.20;4.35;;;;;;;4.54;83.61;101854.72;4914365;29;20276;-77
2023/03/01 01:37:07;;;;;;;8.85;5.07;;;;;;;4.66;83.60;101856.66;4894829;29;20055;-77
2023/03/01 01:39:34;;;;;;;9.35;4.82;;;;;;;4.59;83.47;101850.00;4931218;29;20039;-78
2023/03/01 01:42:01;;;;;;;8.02;4.90;;;;;;;4.63;84.12;101860.34;4926658;29;20039;-77
2023/03/01 01:44:29;;;;;;;7.15;4.50;;;;;;;4.69;84.76;101867.13;4913433;29;20054;-77
2023/03/01 01:47:05;;;;;;;8.80;5.40;;;;;;;4.76;84.75;101857.81;4926029;29;20065;-78
2023/03/01 01:49:30;;;;;;;;;;;;;;;4.80;84.25;101859.34;4894036;29;20040;-77
2023/03/01 01:52:00;;;;;;;;;;;;;;;4.73;84.11;101859.78;4928965;29;19926;-77
2023/03/01 01:54:56;;;;;;;9.20;5.28;;;;;;;4.70;84.57;101866.16;4915359;29;19952;-77
2023/03/01 01:57:29;;;;;;;10.50;5.63;;;;;;;4.69;84.97;101852.94;4926327;29;20035;-77
2023/03/01 01:59:57;;;;;;;10.57;5.82;;;;;;;4.51;84.42;101833.59;4907135;29;20042;-79
2023/03/01 02:02:23;;;;;;;10.90;5.72;;;;;;;4.60;84.41;101822.41;4908395;29;20031;-77
2023/03/01 02:04:52;;;;;;;9.47;5.67;;;;;;;4.64;84.35;101837.25;4914124;29;20046;-78
2023/03/01 02:07:20;;;;;;;9.55;5.93;;;;;;;4.67;84.83;101846.84;4880617;29;20044;-76
2023/03/01 02:09:47;;;;;;;12.20;6.60;;;;;;;4.76;84.85;101841.81;4882610;29;20036;-77
2023/03/01 02:12:15;;;;;;;12.18;6.95;;;;;;;4.85;85.22;101849.25;4929569;29;20042;-79
2023/03/01 02:14:41;;;;;;;10.68;6.50;;;;;;;4.80;85.87;101862.00;4932068;29;20039;-78
2023/03/01 02:17:06;;;;;;;11.02;6.70;;;;;;;4.94;86.17;101862.94;4927469;29;20094;-78
2023/03/01 02:19:50;;;;;;;11.30;6.80;;;;;;;5.00;84.32;101868.75;4925779;29;20051;-78
2023/03/01 02:22:24;;;;;;;9.70;6.22;;;;;;;5.08;84.05;101878.97;4927899;29;20046;-77
2023/03/01 02:25:08;;;;;;;9.75;5.88;;;;;;;5.10;82.92;101876.16;4898480;29;20388;-78
2023/03/01 02:28:02;;;;;;;10.80;6.47;;;;;;;5.14;83.37;101875.88;4924107;29;20172;-78
2023/03/01 02:30:27;;;;;;;12.88;6.35;;;;;;;5.05;83.08;101865.78;4919134;29;20440;-78
2023/03/01 02:32:53;;;;;;;9.83;5.87;;;;;;;5.11;81.95;101862.75;4910285;29;20035;-78
2023/03/01 02:35:19;;;;;;;11.32;6.38;;;;;;;5.06;82.19;101873.72;4897431;29;20055;-78
2023/03/01 02:37:44;;;;;;;11.95;6.70;;;;;;;4.88;82.81;101847.34;4910087;29;20121;-77
2023/03/01 02:40:17;;;;;;;11.30;6.95;;;;;;;5.10;82.95;101877.03;4911705;29;20040;-78
2023/03/01 02:42:56;;;;;;;13.27;6.75;;;;;;;4.99;82.96;101844.88;4896467;29;20036;-80
2023/03/01 02:45:22;;;;;;;12.10;6.95;;;;;;;5.10;82.85;101887.69;4929113;29;20036;-77
2023/03/01 02:47:48;;;;;;;;;;;;;;;5.15;81.81;101893.63;4910969;29;20335;-77
2023/03/01 02:50:31;;;;;;;11.32;6.25;;;;;;;5.02;82.52;101892.66;4926922;29;20009;-77
2023/03/01 02:53:36;;;;;;;12.38;6.85;;;;;;;5.05;82.40;101889.78;4928135;29;20101;-77
2023/03/01 02:56:02;;;;;;;11.73;6.78;;;;;;;4.91;82.70;101871.13;4906733;29;20039;-78
2023/03/01 02:58:28;;;;;;;11.93;6.83;;;;;;;5.22;82.72;101900.28;4908628;29;20127;-80
2023/03/01 03:00:54;;;;;;;12.95;7.00;;;;;;;5.17;82.29;101888.16;4910419;29;20292;-78
2023/03/01 03:03:20;;;;;;;14.20;7.18;;;;;;;5.31;82.32;101889.97;4889897;29;20103;-77
2023/03/01 03:05:45;;;;;;;14.88;7.72;;;;;;;5.23;81.18;101877.97;4908539;29;20047;-78
2023/03/01 03:08:11;;;;;;;12.70;7.37;;;;;;;5.31;81.01;101889.97;4937367;29;20031;-76
2023/03/01 03:10:40;;;;;;;13.50;7.68;;;;;;;5.16;81.76;101905.97;4917730;29;20063;-77
2023/03/01 03:13:10;;;;;;;13.52;7.78;;;;;;;5.23;82.19;101904.63;4916947;29;20048;-77
2023/03/01 03:15:36;;;;;;;14.77;7.50;;;;;;;5.23;81.52;101904.63;4899066;29;20028;-79
2023/03/01 03:18:03;;;;;;;13.35;7.55;;;;;;;5.25;82.09;101904.56;4933578;29;20421;-78
2023/03/01 03:20:29;;;;;;;15.45;8.13;;;;;;;5.12;81.39;101893.78;4902794;29;20114;-77
2023/03/01 03:22:55;;;;;;;15.48;8.55;;;;;;;5.03;81.73;101881.91;4896628;29;20036;-78
2023/03/01 03:25:22;;;;;;;14.80;8.48;;;;;;;5.11;81.78;101894.75;4900784;29;20130;-78
2023/03/01 03:27:47;;;;;;;;;;;;;;;5.03;81.28;101889.03;4932695;29;20035;-77
2023/03/01 03:30:15;;;;;;;15.18;8.50;;;;;;;4.96;81.81;101887.69;4932624;29;20033;-77
2023/03/01 03:32:42;;;;;;;15.38;8.75;;;;;;;4.95;81.95;101880.66;4912282;29;20042;-77
2023/03/01 03:35:09;;;;;;;16.27;8.70;;;;;;;4.82;82.06;101884.09;4914363;29;20035;-77
2023/03/01 03:40:41;;;;;;;18.70;9.80;;;;;;;4.84;82.32;101903.47;4907999;29;20074;-78
2023/03/01 03:43:12;;;;;;;16.30;8.80;;;;;;;4.82;82.97;101884.09;4906881;29;20044;-77
2023/03/01 03:45:58;;;;;;;14.32;7.97;;;;;;;4.83;82.45;101885.78;4899703;29;20384;-78
2023/03/01 03:48:25;;;;;;;15.52;9.07;;;;;;;4.82;82.53;101865.44;4925374;29;20051;-78
2023/03/01 03:50:55;;;;;;;13.98;8.57;;;;;;;4.75;83.17;101857.88;4901153;29;20055;-77
2023/03/01 03:53:22;;;;;;;14.65;8.45;;;;;;;4.57;83.39;101841.25;4905060;29;20036;-78
2023/03/01 03:56:07;;;;;;;17.25;9.48;;;;;;;4.71;84.18;101861.72;4907998;29;20497;-78
2023/03/01 03:58:34;;;;;;;18.48;9.75;;;;;;;4.69;83.86;101859.13;4927711;29;20102;-77
2023/03/01 04:01:00;;;;;;;16.77;9.32;;;;;;;4.76;83.94;101867.59;4933336;29;20058;-77
2023/03/01 04:03:26;;;;;;;18.23;9.60;;;;;;;4.62;83.33;101836.47;4927780;29;20187;-79
2023/03/01 04:05:52;;;;;;;17.00;9.05;;;;;;;4.75;83.77;101844.56;4933978;29;20131;-79
2023/03/01 04:08:22;;;;;;;19.45;9.32;;;;;;;4.72;83.78;101826.97;4926430;29;20111;-77
2023/03/01 04:10:50;;;;;;;20.75;9.98;;;;;;;4.73;83.66;101846.47;4896493;29;20039;-79
2023/03/01 04:13:19;;;;;;;17.77;9.40;;;;;;;4.73;83.78;101844.69;4927931;29;20032;-78
2023/03/01 04:15:45;;;;;;;21.48;10.57;;;;;;;4.66;84.41;101848.66;4917736;29;20039;-77
2023/03/01 04:18:13;;;;;;;16.67;9.30;;;;;;;4.56;84.42;101831.50;4929891;29;20039;-76
2023/03/01 04:20:38;;;;;;;16.98;8.35;;;;;;;4.60;84.13;101838.38;4916098;29;20031;-79
2023/03/01 04:23:15;;;;;;;19.02;10.00;;;;;;;4.58;84.56;101829.63;4904639;29;20043;-80
2023/03/01 04:25:57;;;;;;;18.25;9.70;;;;;;;4.63;83.99;101824.84;4902047;29;20032;-77
2023/03/01 04:28:33;;;;;;;19.60;9.93;;;;;;;4.77;84.18;101840.84;4909415;29;20039;-80
2023/03/01 04:31:01;;;;;;;;;;;;;;;4.80;84.51;101859.34;4932569;29;20052;-78
2023/03/01 04:33:26;;;;;;;17.67;9.82;;;;;;;4.72;83.69;101844.75;4894700;29;19969;-78
2023/03/01 04:35:52;;;;;;;16.50;9.73;;;;;;;4.69;83.34;101850.28;4914730;29;20039;-77
2023/03/01 04:38:21;;;;;;;16.60;9.43;;;;;;;4.68;83.56;101845.91;4926697;29;20433;-77
2023/03/01 04:40:46;;;;;;;23.23;10.43;;;;;;;4.73;84.04;101863.31;4897707;29;20059;-80
2023/03/01 04:43:15;;;;;;;16.60;9.77;;;;;;;4.90;83.10;101861.44;4893718;29;20056;-80
2023/03/01 04:45:40;;;;;;;17.33;9.23;;;;;;;4.99;83.18;101858.19;4931694;29;20299;-79
2023/03/01 04:48:06;;;;;;;15.77;9.13;;;;;;;4.94;82.02;101857.59;4909671;29;20039;-79
2023/03/01 04:50:31;;;;;;;17.40;9.50;;;;;;;4.83;82.60;101851.13;4899834;29;20118;-78
2023/03/01 04:52:58;;;;;;;17.50;9.30;;;;;;;4.76;82.76;101841.81;4926206;29;20059;-79
2023/03/01 04:55:25;;;;;;;;;;;;;;;4.81;82.78;101858.38;4931134;29;20296;-79
2023/03/01 04:57:51;;;;;;;15.50;8.57;;;;;;;4.73;82.45;101851.78;4907664;29;19919;-80
2023/03/01 05:00:19;;;;;;;18.77;10.05;;;;;;;4.77;82.49;101851.50;4897960;29;20051;-79
2023/03/01 05:02:55;;;;;;;16.10;8.63;;;;;;;4.80;81.61;101851.34;4897539;29;20074;-79
2023/03/01 05:05:25;;;;;;;19.33;10.15;;;;;;;4.59;81.70;101815.38;4898084;29;20043;-77
2023/03/01 05:07:55;;;;;;;17.05;9.57;;;;;;;4.76;81.55;101854.28;4909211;29;20489;-77
2023/03/01 05:10:21;;;;;;;15.27;9.48;;;;;;;4.68;82.53;101851.22;4911844;29;20032;-80
2023/03/01 05:12:46;;;;;;;15.48;9.63;;;;;;;4.74;81.96;101851.72;4907154;29;20055;-80
2023/03/01 05:15:12;;;;;;;15.97;9.30;;;;;;;4.84;81.69;101846.66;4931099;29;20115;-81
2023/03/01 05:17:38;;;;;;;17.48;8.82;;;;;;;4.84;81.30;101847.50;4908443;29;20043;-79
2023/03/01 05:20:08;;;;;;;19.13;9.27;;;;;;;4.86;81.59;101860.75;4901792;29;20581;-79
2023/03/01 05:22:35;;;;;;;15.93;9.30;;;;;;;4.90;81.82;101859.63;4921780;29;20054;-82
2023/03/01 05:25:03;;;;;;;16.88;9.25;;;;;;;4.99;81.37;101858.19;4930400;29;20023;-82
2023/03/01 05:27:29;;;;;;;16.63;9.85;;;;;;;4.84;81.38;101838.66;4907736;29;20035;-80
2023/03/01 05:29:56;;;;;;;17.08;8.98;;;;;;;4.90;80.75;101848.09;4929347;29;20027;-78
2023/03/01 05:32:22;;;;;;;;;;;;;;;4.96;80.82;101845.03;4908224;29;20046;-78
2023/03/01 05:34:48;;;;;;;18.92;9.07;;;;;;;4.76;80.90;101820.50;4929920;29;20005;-77
2023/03/01 05:37:14;;;;;;;18.58;9.88;;;;;;;4.84;81.53;101852.00;4928173;29;20039;-79
2023/03/01 05:39:41;;;;;;;18.30;9.70;;;;;;;4.77;82.21;101854.16;4903607;29;20484;-79
2023/03/01 05:42:10;;;;;;;16.23;9.05;;;;;;;4.87;81.84;101851.81;4927310;29;20292;-78
2023/03/01 05:44:36;;;;;;;16.33;9.20;;;;;;;4.88;81.34;101839.34;4881329;29;20056;-79
2023/03/01 05:47:02;;;;;;;;;;;;;;;4.99;81.04;101859.06;4910596;29;20032;-77
2023/03/01 05:49:27;;;;;;;16.92;9.82;;;;;;;4.97;82.14;101841.44;4931344;29;19926;-78
2023/03/01 05:51:53;;;;;;;16.27;9.50;;;;;;;5.02;81.94;101847.34;4908889;29;20044;-78
2023/03/01 05:54:20;;;;;;;16.77;9.40;;;;;;;5.01;80.01;101853.59;4929897;29;20432;-78
2023/03/01 05:56:46;;;;;;;17.73;9.32;;;;;;;4.91;80.64;101847.16;4906120;29;20047;-79
2023/03/01 05:59:13;;;;;;;14.82;8.77;;;;;;;5.08;80.09;101858.47;4913083;29;20436;-79
2023/03/01 06:01:39;;;;;;;17.67;8.88;;;;;;;4.83;80.55;101848.47;4926643;29;20533;-79
2023/03/01 06:04:04;;;;;;;19.33;9.43;;;;;;;4.85;79.99;101837.72;4898018;29;20048;-78
2023/03/01 06:06:33;;;;;;;15.83;8.73;;;;;;;5.06;79.82;101856.88;4894709;29;20327;-77
2023/03/01 06:08:58;;;;;;;16.58;9.20;;;;;;;5.07;80.13;101853.22;4914492;29;20412;-78
2023/03/01 06:11:24;;;;;;;15.60;9.35;;;;;;;5.10;79.98;101842.38;4901801;29;20043;-77
2023/03/01 06:13:50;;;;;;;16.63;9.27;;;;;;;4.98;79.97;101848.47;4910142;29;20547;-77
2023/03/01 06:16:16;;;;;;;16.52;8.98;;;;;;;5.17;79.77;101865.03;4928942;29;20311;-78
2023/03/01 06:18:45;;;;;;;16.38;9.40;;;;;;;5.09;79.12;101856.66;4910932;29;20036;-79
2023/03/01 06:21:11;;;;;;;15.52;9.18;;;;;;;5.17;79.68;101862.34;4913019;29;20044;-80
2023/03/01 06:23:36;;;;;;;14.43;8.77;;;;;;;5.11;79.86;101869.91;4890846;29;20039;-78
2023/03/01 06:26:06;;;;;;;15.98;8.75;;;;;;;5.22;79.16;101862.94;4906135;29;20039;-81
2023/03/01 06:28:34;;;;;;;14.57;8.32;;;;;;;5.29;79.09;101858.94;4895744;29;20365;-78
2023/03/01 06:30:59;;;;;;;17.02;8.45;;;;;;;5.27;78.88;101858.16;4907523;29;20074;-79
2023/03/01 06:33:25;;;;;;;15.38;9.05;;;;;;;5.25;78.93;101851.22;4890106;29;20048;-80
2023/03/01 06:35:51;;;;;;;15.00;8.97;;;;;;;5.23;80.31;101821.97;4931219;29;20469;-82
2023/03/01 06:38:18;;;;;;;17.88;9.48;;;;;;;5.40;78.59;101860.03;4904094;29;20134;-80
2023/03/01 06:40:44;;;;;;;16.30;9.27;;;;;;;5.44;79.13;101846.41;4897464;29;20032;-78
2023/03/01 06:43:10;;;;;;;16.63;10.02;;;;;;;5.67;79.55;101862.75;4893096;29;20036;-80
2023/03/01 06:45:37;;;;;;;16.63;9.77;;;;;;;5.72;78.88;101850.81;4928985;29;20051;-79
2023/03/01 06:48:05;;;;;;;15.77;9.60;;;;;;;5.83;78.10;101850.13;4891762;29;20039;-79
2023/03/01 06:50:32;;;;;;;18.95;9.10;;;;;;;5.80;78.53;101844.97;4911209;29;20038;-80
2023/03/01 06:52:59;;;;;;;15.52;9.30;;;;;;;5.91;78.62;101846.94;4903392;29;20055;-81
2023/03/01 06:55:25;;;;;;;16.65;9.50;;;;;;;5.96;77.24;101846.66;4914316;29;20043;-83
2023/03/01 06:57:57;;;;;;;17.70;9.70;;;;;;;5.70;77.67;101817.19;4892112;29;20099;-78
2023/03/01 07:00:24;;;;;;;17.77;9.30;;;;;;;5.85;78.27;101853.56;4906285;29;20094;-81
2023/03/01 07:02:51;;;;;;;18.52;9.57;;;;;;;5.96;78.09;101857.34;4890340;29;20039;-80
2023/03/01 07:05:16;;;;;;;15.80;9.10;;;;;;;6.16;78.61;101856.88;4899129;29;20042;-76
2023/03/01 07:07:43;;;;;;;15.77;9.82;;;;;;;6.09;76.93;101843.09;4915992;29;20727;-78
2023/03/01 07:10:09;;;;;;;17.70;9.48;;;;;;;6.20;77.65;101855.69;4892236;29;20063;-81
2023/03/01 07:12:34;;;;;;;;;;;;;;;6.27;76.76;101861.47;4912263;29;20481;-80
2023/03/01 07:15:00;;;;;;;18.50;10.10;;;;;;;5.99;76.25;101847.31;4928339;29;19915;-81
2023/03/01 07:17:27;;;;;;;17.17;9.03;;;;;;;6.06;77.31;101853.97;4910764;29;20036;-83
2023/03/01 07:19:52;;;;;;;15.10;9.20;;;;;;;5.99;76.63;101854.47;4880836;29;20803;-80
2023/03/01 07:22:21;;;;;;;17.42;10.15;;;;;;;6.02;76.33;101862.28;4925251;29;20024;-79
2023/03/01 07:24:50;;;;;;;13.65;8.50;;;;;;;5.85;76.24;101844.66;4901371;29;20393;-79
2023/03/01 07:27:17;;;;;;;15.68;9.70;;;;;;;5.76;76.36;101837.25;4904145;29;20047;-83
2023/03/01 07:29:42;;;;;;;17.42;10.30;;;;;;;5.87;77.84;101869.44;4904075;29;20044;-81
2023/03/01 07:32:08;;;;;;;17.35;10.00;;;;;;;5.77;77.77;101871.00;4926302;29;20119;-84
2023/03/01 07:34:41;;;;;;;18.65;9.80;;;;;;;5.59;77.83;101855.22;4902484;29;20132;-84
2023/03/01 07:37:07;;;;;;;18.00;10.18;;;;;;;5.69;77.93;101861.69;4900514;29;20052;-82
2023/03/01 07:39:34;;;;;;;17.50;10.55;;;;;;;5.71;77.92;101873.13;4917760;29;20480;-82
2023/03/01 07:42:19;;;;;;;16.98;10.30;;;;;;;5.59;78.44;101868.56;4915456;29;20040;-83
2023/03/01 07:44:46;;;;;;;18.63;10.43;;;;;;;5.60;78.87;101856.97;4936163;29;20043;-84
2023/03/01 07:47:14;;;;;;;17.45;9.77;;;;;;;5.37;78.64;101844.25;4909044;29;20040;-83
2023/03/01 07:49:40;;;;;;;19.58;10.73;;;;;;;5.40;78.94;101838.72;4933433;29;20480;-82
2023/03/01 07:52:05;;;;;;;20.85;10.80;;;;;;;5.59;79.35;101857.06;4918359;29;20087;-83
2023/03/01 07:54:32;;;;;;;18.20;9.85;;;;;;;5.54;78.94;101851.16;4934181;29;20425;-80
2023/03/01 07:56:58;;;;;;;19.83;10.60;;;;;;;5.67;78.60;101847.59;4898784;29;20036;-81
2023/03/01 07:59:28;;;;;;;21.05;10.05;;;;;;;5.60;78.52;101846.28;4919435;29;20036;-82
2023/03/01 08:01:55;;;;;;;17.77;9.88;;;;;;;5.42;78.76;101855.47;4929733;29;20146;-82
2023/03/01 08:04:23;;;;;;;17.83;9.88;;;;;;;5.38;79.14;101854.81;4913840;29;20818;-80
2023/03/01 08:06:51;;;;;;;17.33;9.98;;;;;;;5.38;79.02;101864.63;4915222;29;20094;-84
2023/03/01 08:09:17;;;;;;;20.52;10.38;;;;;;;5.34;78.82;101860.44;4897818;29;20569;-84
2023/03/01 08:11:43;;;;;;;20.98;10.20;;;;;;;5.43;78.82;101855.38;4931531;29;20040;-82
2023/03/01 08:14:13;;;;;;;17.67;10.20;;;;;;;5.56;77.50;101860.78;4906844;29;20036;-82
2023/03/01 08:16:38;;;;;;;18.77;9.82;;;;;;;5.58;77.56;101858.03;4929940;29;20027;-82
2023/03/01 08:19:11;;;;;;;18.92;10.10;;;;;;;5.65;77.66;101865.53;4912755;29;20186;-80
2023/03/01 08:21:36;;;;;;;18.48;10.35;;;;;;;5.69;77.67;101856.38;4903635;29;20027;-81
2023/03/01 08:24:05;;;;;;;18.55;10.73;;;;;;;6.01;76.54;101861.41;4899268;29;20159;-82
2023/03/01 08:26:31;;;;;;;21.83;11.00;;;;;;;6.17;75.70;101860.41;4916427;29;20431;-80
2023/03/01 08:28:57;;;;;;;18.88;10.20;;;;;;;6.31;74.43;101860.31;4910363;29;20050;-82
2023/03/01 08:31:54;;;;;;;17.05;10.45;;;;;;;6.32;73.97;101849.53;4885259;29;20060;-80
2023/03/01 08:34:22;;;;;;;18.77;10.68;;;;;;;6.04;73.14;101826.53;4909990;29;20146;-85
2023/03/01 08:36:48;;;;;;;16.60;10.25;;;;;;;6.30;72.79;101848.78;4899031;29;20036;-83
2023/03/01 08:39:15;;;;;;;20.25;12.25;;;;;;;6.37;73.09;101859.91;4913008;29;20136;-83
2023/03/01 08:41:41;;;;;;;18.75;11.65;;;;;;;6.58;72.11;101852.25;4914185;29;20046;-82
2023/03/01 08:44:07;;;;;;;17.10;10.45;;;;;;;6.59;71.25;101855.75;4933496;29;20403;-82
2023/03/01 08:46:37;;;;;;;22.02;11.00;;;;;;;6.39;72.18;101825.94;4926644;29;20111;-81
2023/03/01 08:49:10;;;;;;;19.05;11.40;;;;;;;6.61;71.32;101864.53;4915326;29;20063;-85
2023/03/01 08:51:38;;;;;;;16.73;9.85;;;;;;;6.53;71.15;101868.59;4907900;29;20132;-82
2023/03/01 08:54:04;;;;;;;23.52;10.50;;;;;;;6.48;71.22;101864.50;4932680;29;20036;-83
2023/03/01 08:56:33;;;;;;;;;;;;;;;6.59;70.93;101861.13;4931101;29;20123;-82
2023/03/01 08:58:58;;;;;;;15.38;9.35;;;;;;;6.44;70.52;101839.84;4908560;29;19915;-81
2023/03/01 09:01:24;;;;;;;17.20;10.48;;;;;;;6.49;70.58;101847.53;4900880;29;20410;-81
2023/03/01 09:03:49;;;;;;;14.83;9.83;;;;;;;6.41;70.50;101841.84;4904275;29;20127;-83
2023/03/01 09:06:15;;;;;;;18.87;10.40;;;;;;;6.27;70.64;101826.75;4929366;29;20394;-81
2023/03/01 09:08:42;;;;;;;16.73;10.15;;;;;;;6.54;70.46;101848.91;4930372;29;20058;-83
2023/03/01 09:11:12;;;;;;;20.33;11.50;;;;;;;6.53;70.63;101820.50;4915131;29;20040;-82
2023/03/01 09:13:40;;;;;;;31.73;11.93;;;;;;;6.75;70.46;101827.00;4909362;29;20032;-83
2023/03/01 09:16:07;;;;;;;20.30;10.95;;;;;;;6.93;69.50;101825.72;4926511;29;20051;-80
2023/03/01 09:18:33;;;;;;;17.02;10.65;;;;;;;6.86;68.68;101842.28;4893491;29;20058;-82
2023/03/01 09:21:09;;;;;;;19.40;11.73;;;;;;;6.70;69.35;101826.50;4933723;29;20031;-84
2023/03/01 09:23:38;;;;;;;20.60;11.30;;;;;;;6.89;69.98;101853.63;4926741;29;20059;-82
2023/03/01 09:26:04;;;;;;;22.42;11.90;;;;;;;6.76;69.59;101842.06;4934184;29;20024;-82
2023/03/01 09:28:29;;;;;;;22.33;13.80;;;;;;;6.59;70.02;101821.88;4913280;29;20036;-81
2023/03/01 09:30:59;;;;;;;22.33;12.48;;;;;;;6.77;70.24;101835.78;4906631;29;20118;-80
2023/03/01 09:33:24;;;;;;;29.50;12.60;;;;;;;6.88;70.51;101835.88;4911348;29;20059;-82
2023/03/01 09:35:50;;;;;;;24.40;13.00;;;;;;;6.75;69.70;101835.03;4919184;29;20027;-83
2023/03/01 09:38:15;;;;;;;27.13;12.30;;;;;;;6.89;69.86;101837.59;4891349;29;20709;-83
2023/03/01 09:40:47;;;;;;;20.48;12.38;;;;;;;7.08;68.64;101847.81;4933808;29;20035;-83
2023/03/01 09:43:30;;;;;;;22.10;12.52;;;;;;;6.78;68.93;101839.31;4909755;29;20040;-82
2023/03/01 09:45:56;;;;;;;23.02;12.48;;;;;;;6.83;69.38;101848.69;4913266;29;20401;-81
2023/03/01 09:48:26;;;;;;;21.50;12.18;;;;;;;6.95;69.62;101837.16;4892523;29;20066;-80
2023/03/01 09:50:54;;;;;;;25.55;13.50;;;;;;;7.14;68.96;101841.19;4897371;29;20031;-78
2023/03/01 09:53:21;;;;;;;24.65;11.60;;;;;;;6.91;68.84;101824.13;4910116;29;20039;-82
2023/03/01 09:56:02;;;;;;;21.05;11.70;;;;;;;7.09;68.47;101836.16;4898570;29;20059;-82
2023/03/01 09:58:45;;;;;;;23.52;11.45;;;;;;;6.87;68.33;101831.50;4928544;29;20043;-83
2023/03/01 10:01:34;;;;;;;26.30;14.48;;;;;;;6.77;68.81;101827.75;4930013;29;20032;-83
2023/03/01 10:04:09;;;;;;;21.92;11.00;;;;;;;6.97;68.27;101840.56;4912594;29;20115;-83
2023/03/01 10:06:34;;;;;;;19.35;11.15;;;;;;;6.91;67.56;101837.50;4913596;29;20040;-82
2023/03/01 10:09:10;;;;;;;22.52;10.88;;;;;;;6.82;68.33;101819.44;4890186;29;20051;-81
2023/03/01 10:11:44;;;;;;;29.13;13.60;;;;;;;6.77;68.58;101817.06;4896279;29;20043;-82
2023/03/01 10:14:31;;;;;;;25.58;12.48;;;;;;;6.71;69.58;101830.84;4909531;29;20036;-82
2023/03/01 10:17:02;;;;;;;20.88;11.25;;;;;;;6.83;68.38;101811.28;4920707;29;20114;-81
2023/03/01 10:19:39;;;;;;;19.38;9.93;;;;;;;6.89;67.88;101815.34;4883530;29;20048;-80
2023/03/01 10:22:15;;;;;;;26.63;11.02;;;;;;;6.81;68.34;101801.66;4888685;29;20055;-81
2023/03/01 10:24:40;;;;;;;21.02;10.40;;;;;;;6.99;68.27;101813.72;4901249;29;20059;-83
2023/03/01 10:28:05;;;;;;;19.30;10.00;;;;;;;6.92;67.70;101796.41;4901931;29;20393;-79
2023/03/01 10:30:43;;;;;;;20.15;9.90;;;;;;;6.98;67.29;101804.84;4867935;29;20542;-85
2023/03/01 10:33:17;;;;;;;17.95;9.40;;;;;;;6.75;67.35;101803.81;4869264;29;20049;-80
2023/03/01 10:35:43;;;;;;;18.02;9.70;;;;;;;6.53;67.58;101783.09;4909948;29;20501;-86
2023/03/01 10:38:10;;;;;;;18.05;9.10;;;;;;;6.40;68.23;101776.03;4904468;29;20027;-85
2023/03/01 10:40:36;;;;;;;19.35;10.02;;;;;;;6.62;68.62;101791.41;4896271;29;20079;-77
2023/03/01 10:43:05;;;;;;;18.58;9.10;;;;;;;6.80;68.09;101790.13;4910241;29;20070;-79
2023/03/01 10:45:35;;;;;;;13.68;8.57;;;;;;;6.91;66.96;101789.38;4899345;29;20108;-82
2023/03/01 10:48:19;;;;;;;15.20;8.82;;;;;;;6.65;66.83;101759.13;4910385;29;20063;-77
2023/03/01 10:50:51;;;;;;;19.10;9.30;;;;;;;6.93;67.16;101782.94;4917478;29;20044;-79
2023/03/01 10:53:38;;;;;;;21.90;8.48;;;;;;;6.87;67.46;101767.34;4896994;29;20031;-81
2023/03/01 10:56:10;;;;;;;17.70;8.85;;;;;;;6.99;66.96;101778.97;4910388;29;20118;-83
2023/03/01 10:58:40;;;;;;;15.68;8.63;;;;;;;7.14;66.46;101787.69;4915638;29;20058;-81
2023/03/01 11:01:17;;;;;;;24.63;9.35;;;;;;;7.10;67.17;101781.72;4886905;29;20043;-81
2023/03/01 11:03:43;;;;;;;20.80;9.45;;;;;;;7.31;66.66;101779.31;4929641;29;20447;-80
2023/03/01 11:06:22;;;;;;;16.27;9.55;;;;;;;7.17;65.77;101747.38;4918576;29;20032;-78
2023/03/01 11:08:49;;;;;;;25.02;12.10;;;;;;;7.35;66.70;101780.78;4918048;29;20035;-79
2023/03/01 11:11:25;;;;;;;17.42;9.32;;;;;;;7.36;65.51;101776.28;4886645;29;20051;-78
2023/03/01 11:14:22;;;;;;;13.98;9.20;;;;;;;7.16;66.01;101773.25;4915316;29;20047;-79
2023/03/01 11:17:31;;;;;;;15.80;8.40;;;;;;;7.42;65.15;101769.63;4918488;29;20040;-79
2023/03/01 11:20:12;;;;;;;14.32;8.85;;;;;;;7.30;65.41;101761.53;4876086;29;20039;-78
2023/03/01 11:22:50;;;;;;;15.43;8.57;;;;;;;7.13;65.05;101749.41;4926220;29;20500;-78
2023/03/01 11:25:16;;;;;;;13.48;8.45;;;;;;;7.35;65.48;101748.69;4894050;29;20366;-79
2023/03/01 11:27:47;;;;;;;15.25;8.60;;;;;;;7.21;65.25;101724.78;4932528;29;20039;-79
2023/03/01 11:30:21;;;;;;;18.40;9.65;;;;;;;7.30;65.60;101728.59;4935393;29;20103;-80
2023/03/01 11:33:07;;;;;;;14.63;8.80;;;;;;;7.32;65.83;101722.16;4926469;29;20054;-79
2023/03/01 11:35:37;;;;;;;15.07;7.32;;;;;;;7.07;65.03;101717.78;4911972;29;20038;-78
2023/03/01 11:38:34;;;;;;;12.52;8.00;;;;;;;7.25;65.22;101723.56;4914233;29;20050;-79
2023/03/01 11:41:00;;;;;;;16.25;7.88;;;;;;;7.34;64.45;101720.22;4907725;29;20424;-79